sensor_id;sensor_type;location;lat;lon;timestamp;temperature;humidity
69823;SHT31;57119;52.516;13.508;2023-03-23T00:00:58;11.58;83.62
69823;SHT31;57119;52.516;13.508;2023-03-23T00:03:23;11.47;83.90
69823;SHT31;57119;52.516;13.508;2023-03-23T00:05:51;11.47;84.20
69823;SHT31;57119;52.516;13.508;2023-03-23T00:08:18;11.46;84.09
69823;SHT31;57119;52.516;13.508;2023-03-23T00:10:48;11.35;84.41
69823;SHT31;57119;52.516;13.508;2023-03-23T00:13:13;11.38;84.57
69823;SHT31;57119;52.516;13.508;2023-03-23T00:15:44;11.40;84.45
69823;SHT31;57119;52.516;13.508;2023-03-23T00:18:09;11.35;84.50
69823;SHT31;57119;52.516;13.508;2023-03-23T00:20:46;11.21;85.06
69823;SHT31;57119;52.516;13.508;2023-03-23T00:23:18;11.07;85.51
69823;SHT31;57119;52.516;13.508;2023-03-23T00:25:48;10.97;85.81
69823;SHT31;57119;52.516;13.508;2023-03-23T00:28:15;10.95;85.78
69823;SHT31;57119;52.516;13.508;2023-03-23T00:30:41;10.88;86.07
69823;SHT31;57119;52.516;13.508;2023-03-23T00:33:08;10.77;86.49
69823;SHT31;57119;52.516;13.508;2023-03-23T00:35:34;10.77;86.55
69823;SHT31;57119;52.516;13.508;2023-03-23T00:38:02;10.68;86.71
69823;SHT31;57119;52.516;13.508;2023-03-23T00:40:29;10.74;86.55
69823;SHT31;57119;52.516;13.508;2023-03-23T00:42:55;10.70;86.68
69823;SHT31;57119;52.516;13.508;2023-03-23T00:45:21;10.65;86.73
69823;SHT31;57119;52.516;13.508;2023-03-23T00:47:46;10.54;87.19
69823;SHT31;57119;52.516;13.508;2023-03-23T00:50:16;10.42;87.42
69823;SHT31;57119;52.516;13.508;2023-03-23T00:52:43;10.43;87.56
69823;SHT31;57119;52.516;13.508;2023-03-23T00:55:09;10.47;87.38
69823;SHT31;57119;52.516;13.508;2023-03-23T00:57:35;10.56;86.89
69823;SHT31;57119;52.516;13.508;2023-03-23T01:00:00;10.53;87.26
69823;SHT31;57119;52.516;13.508;2023-03-23T01:02:26;10.36;87.92
69823;SHT31;57119;52.516;13.508;2023-03-23T01:04:54;10.32;87.81
69823;SHT31;57119;52.516;13.508;2023-03-23T01:07:20;10.13;88.24
69823;SHT31;57119;52.516;13.508;2023-03-23T01:09:48;10.16;88.12
69823;SHT31;57119;52.516;13.508;2023-03-23T01:12:13;10.22;87.98
69823;SHT31;57119;52.516;13.508;2023-03-23T01:14:40;10.22;88.04
69823;SHT31;57119;52.516;13.508;2023-03-23T01:17:06;10.28;88.01
69823;SHT31;57119;52.516;13.508;2023-03-23T01:19:31;10.17;88.16
69823;SHT31;57119;52.516;13.508;2023-03-23T01:21:56;10.15;88.30
69823;SHT31;57119;52.516;13.508;2023-03-23T01:24:22;10.12;88.30
69823;SHT31;57119;52.516;13.508;2023-03-23T01:26:47;10.16;88.13
69823;SHT31;57119;52.516;13.508;2023-03-23T01:29:13;10.12;88.22
69823;SHT31;57119;52.516;13.508;2023-03-23T01:31:38;9.98;88.46
69823;SHT31;57119;52.516;13.508;2023-03-23T01:34:04;10.02;88.43
69823;SHT31;57119;52.516;13.508;2023-03-23T01:36:30;10.13;88.23
69823;SHT31;57119;52.516;13.508;2023-03-23T01:38:59;10.16;87.91
69823;SHT31;57119;52.516;13.508;2023-03-23T01:41:26;10.09;88.21
69823;SHT31;57119;52.516;13.508;2023-03-23T01:44:06;10.08;88.40
69823;SHT31;57119;52.516;13.508;2023-03-23T01:46:34;9.96;88.74
69823;SHT31;57119;52.516;13.508;2023-03-23T01:49:30;9.98;88.53
69823;SHT31;57119;52.516;13.508;2023-03-23T01:52:01;9.88;88.91
69823;SHT31;57119;52.516;13.508;2023-03-23T01:54:28;9.86;89.04
69823;SHT31;57119;52.516;13.508;2023-03-23T01:57:07;9.79;89.27
69823;SHT31;57119;52.516;13.508;2023-03-23T01:59:36;9.77;89.50
69823;SHT31;57119;52.516;13.508;2023-03-23T02:02:02;9.68;89.86
69823;SHT31;57119;52.516;13.508;2023-03-23T02:04:28;9.68;89.95
69823;SHT31;57119;52.516;13.508;2023-03-23T02:06:56;9.62;90.64
69823;SHT31;57119;52.516;13.508;2023-03-23T02:09:24;9.84;89.19
69823;SHT31;57119;52.516;13.508;2023-03-23T02:11:50;10.01;88.67
69823;SHT31;57119;52.516;13.508;2023-03-23T02:14:17;10.02;88.71
69823;SHT31;57119;52.516;13.508;2023-03-23T02:27:04;10.19;87.77
69823;SHT31;57119;52.516;13.508;2023-03-23T02:34:59;10.40;87.38
69823;SHT31;57119;52.516;13.508;2023-03-23T02:37:31;10.60;86.48
69823;SHT31;57119;52.516;13.508;2023-03-23T02:40:03;10.70;86.28
69823;SHT31;57119;52.516;13.508;2023-03-23T02:42:39;10.91;85.27
69823;SHT31;57119;52.516;13.508;2023-03-23T02:45:08;11.05;84.93
69823;SHT31;57119;52.516;13.508;2023-03-23T02:47:37;11.10;84.76
69823;SHT31;57119;52.516;13.508;2023-03-23T02:50:05;11.19;84.32
69823;SHT31;57119;52.516;13.508;2023-03-23T02:52:33;11.26;84.12
69823;SHT31;57119;52.516;13.508;2023-03-23T02:55:00;11.31;84.60
69823;SHT31;57119;52.516;13.508;2023-03-23T02:57:27;11.32;84.82
69823;SHT31;57119;52.516;13.508;2023-03-23T02:59:53;11.32;84.55
69823;SHT31;57119;52.516;13.508;2023-03-23T03:02:23;11.36;84.90
69823;SHT31;57119;52.516;13.508;2023-03-23T03:04:58;11.36;85.14
69823;SHT31;57119;52.516;13.508;2023-03-23T03:07:39;11.35;84.78
69823;SHT31;57119;52.516;13.508;2023-03-23T03:16:03;11.38;84.98
69823;SHT31;57119;52.516;13.508;2023-03-23T03:18:36;11.38;84.96
69823;SHT31;57119;52.516;13.508;2023-03-23T03:21:06;11.36;85.11
69823;SHT31;57119;52.516;13.508;2023-03-23T03:23:33;11.40;84.95
69823;SHT31;57119;52.516;13.508;2023-03-23T03:26:00;11.42;85.12
69823;SHT31;57119;52.516;13.508;2023-03-23T03:28:27;11.46;84.87
69823;SHT31;57119;52.516;13.508;2023-03-23T03:30:56;11.47;84.99
69823;SHT31;57119;52.516;13.508;2023-03-23T03:33:23;11.44;85.11
69823;SHT31;57119;52.516;13.508;2023-03-23T03:35:52;11.50;84.95
69823;SHT31;57119;52.516;13.508;2023-03-23T03:38:18;11.46;84.68
69823;SHT31;57119;52.516;13.508;2023-03-23T03:40:43;11.43;84.81
69823;SHT31;57119;52.516;13.508;2023-03-23T03:43:09;11.46;84.72
69823;SHT31;57119;52.516;13.508;2023-03-23T03:45:34;11.49;84.99
69823;SHT31;57119;52.516;13.508;2023-03-23T03:47:59;11.50;84.64
69823;SHT31;57119;52.516;13.508;2023-03-23T03:50:27;11.62;84.57
69823;SHT31;57119;52.516;13.508;2023-03-23T03:52:53;11.50;85.03
69823;SHT31;57119;52.516;13.508;2023-03-23T03:55:18;11.56;85.19
69823;SHT31;57119;52.516;13.508;2023-03-23T03:57:44;11.53;84.80
69823;SHT31;57119;52.516;13.508;2023-03-23T04:00:10;11.44;85.92
69823;SHT31;57119;52.516;13.508;2023-03-23T04:02:41;11.47;85.87
69823;SHT31;57119;52.516;13.508;2023-03-23T04:05:07;11.38;86.56
69823;SHT31;57119;52.516;13.508;2023-03-23T04:07:34;11.36;86.32
69823;SHT31;57119;52.516;13.508;2023-03-23T04:10:06;11.42;85.57
69823;SHT31;57119;52.516;13.508;2023-03-23T04:12:32;11.44;85.73
69823;SHT31;57119;52.516;13.508;2023-03-23T04:14:58;11.33;86.49
69823;SHT31;57119;52.516;13.508;2023-03-23T04:17:23;11.29;86.78
69823;SHT31;57119;52.516;13.508;2023-03-23T04:19:51;11.23;86.89
69823;SHT31;57119;52.516;13.508;2023-03-23T04:22:17;10.98;91.95
69823;SHT31;57119;52.516;13.508;2023-03-23T04:24:42;10.87;93.10
69823;SHT31;57119;52.516;13.508;2023-03-23T04:27:08;10.81;93.38
69823;SHT31;57119;52.516;13.508;2023-03-23T04:29:33;10.80;92.72
69823;SHT31;57119;52.516;13.508;2023-03-23T04:31:59;10.75;92.81
69823;SHT31;57119;52.516;13.508;2023-03-23T04:34:26;10.65;93.74
69823;SHT31;57119;52.516;13.508;2023-03-23T04:36:51;10.65;94.87
69823;SHT31;57119;52.516;13.508;2023-03-23T04:39:18;10.63;94.77
69823;SHT31;57119;52.516;13.508;2023-03-23T04:41:43;10.61;95.17
69823;SHT31;57119;52.516;13.508;2023-03-23T04:44:09;10.57;95.60
69823;SHT31;57119;52.516;13.508;2023-03-23T04:46:34;10.57;96.61
69823;SHT31;57119;52.516;13.508;2023-03-23T04:49:00;10.53;96.93
69823;SHT31;57119;52.516;13.508;2023-03-23T04:51:28;10.50;96.67
69823;SHT31;57119;52.516;13.508;2023-03-23T04:53:55;10.53;95.09
69823;SHT31;57119;52.516;13.508;2023-03-23T04:56:21;10.64;94.38
69823;SHT31;57119;52.516;13.508;2023-03-23T04:58:47;10.74;92.20
69823;SHT31;57119;52.516;13.508;2023-03-23T05:01:12;10.74;91.87
69823;SHT31;57119;52.516;13.508;2023-03-23T05:03:42;10.94;90.20
69823;SHT31;57119;52.516;13.508;2023-03-23T05:06:09;11.00;89.82
69823;SHT31;57119;52.516;13.508;2023-03-23T05:08:34;11.11;88.44
69823;SHT31;57119;52.516;13.508;2023-03-23T05:11:05;11.10;88.54
69823;SHT31;57119;52.516;13.508;2023-03-23T05:13:32;11.08;89.23
69823;SHT31;57119;52.516;13.508;2023-03-23T05:15:57;11.19;88.91
69823;SHT31;57119;52.516;13.508;2023-03-23T05:18:23;11.14;89.45
69823;SHT31;57119;52.516;13.508;2023-03-23T05:20:49;11.08;91.24
69823;SHT31;57119;52.516;13.508;2023-03-23T05:23:17;11.02;91.48
69823;SHT31;57119;52.516;13.508;2023-03-23T05:25:52;11.04;91.80
69823;SHT31;57119;52.516;13.508;2023-03-23T05:28:18;10.97;93.08
69823;SHT31;57119;52.516;13.508;2023-03-23T05:30:44;11.08;90.88
69823;SHT31;57119;52.516;13.508;2023-03-23T05:33:09;11.14;90.72
69823;SHT31;57119;52.516;13.508;2023-03-23T05:35:34;11.18;90.53
69823;SHT31;57119;52.516;13.508;2023-03-23T05:38:00;11.18;90.66
69823;SHT31;57119;52.516;13.508;2023-03-23T05:40:27;11.14;91.53
69823;SHT31;57119;52.516;13.508;2023-03-23T05:42:53;11.00;91.85
69823;SHT31;57119;52.516;13.508;2023-03-23T05:45:20;11.11;91.45
69823;SHT31;57119;52.516;13.508;2023-03-23T05:47:46;11.15;91.07
69823;SHT31;57119;52.516;13.508;2023-03-23T05:50:12;11.16;91.16
69823;SHT31;57119;52.516;13.508;2023-03-23T05:52:38;11.15;91.66
69823;SHT31;57119;52.516;13.508;2023-03-23T05:55:05;11.15;91.86
69823;SHT31;57119;52.516;13.508;2023-03-23T05:57:31;11.11;92.11
69823;SHT31;57119;52.516;13.508;2023-03-23T05:59:57;11.11;92.59
69823;SHT31;57119;52.516;13.508;2023-03-23T06:02:24;11.04;93.25
69823;SHT31;57119;52.516;13.508;2023-03-23T06:04:52;11.00;93.81
69823;SHT31;57119;52.516;13.508;2023-03-23T06:07:22;10.97;94.21
69823;SHT31;57119;52.516;13.508;2023-03-23T06:09:49;10.87;95.27
69823;SHT31;57119;52.516;13.508;2023-03-23T06:12:15;10.81;96.03
69823;SHT31;57119;52.516;13.508;2023-03-23T06:14:45;10.77;96.17
69823;SHT31;57119;52.516;13.508;2023-03-23T06:17:11;10.67;96.90
69823;SHT31;57119;52.516;13.508;2023-03-23T06:19:37;10.63;97.63
69823;SHT31;57119;52.516;13.508;2023-03-23T06:22:02;10.63;97.75
69823;SHT31;57119;52.516;13.508;2023-03-23T06:24:27;10.49;98.62
69823;SHT31;57119;52.516;13.508;2023-03-23T06:26:53;10.46;99.25
69823;SHT31;57119;52.516;13.508;2023-03-23T06:29:19;10.50;99.13
69823;SHT31;57119;52.516;13.508;2023-03-23T06:31:48;10.42;99.56
69823;SHT31;57119;52.516;13.508;2023-03-23T06:34:14;10.47;99.53
69823;SHT31;57119;52.516;13.508;2023-03-23T06:36:40;10.52;99.46
69823;SHT31;57119;52.516;13.508;2023-03-23T06:39:05;10.52;99.60
69823;SHT31;57119;52.516;13.508;2023-03-23T06:41:31;10.54;99.51
69823;SHT31;57119;52.516;13.508;2023-03-23T06:43:57;10.56;99.55
69823;SHT31;57119;52.516;13.508;2023-03-23T06:46:23;10.57;99.84
69823;SHT31;57119;52.516;13.508;2023-03-23T06:48:49;10.63;99.71
69823;SHT31;57119;52.516;13.508;2023-03-23T06:51:16;10.67;99.10
69823;SHT31;57119;52.516;13.508;2023-03-23T06:53:42;10.70;99.71
69823;SHT31;57119;52.516;13.508;2023-03-23T06:56:07;10.73;99.38
69823;SHT31;57119;52.516;13.508;2023-03-23T06:58:33;10.74;99.37
69823;SHT31;57119;52.516;13.508;2023-03-23T07:00:58;10.73;99.71
69823;SHT31;57119;52.516;13.508;2023-03-23T07:03:24;10.75;99.99
69823;SHT31;57119;52.516;13.508;2023-03-23T07:05:51;10.78;99.71
69823;SHT31;57119;52.516;13.508;2023-03-23T07:08:16;10.75;99.90
69823;SHT31;57119;52.516;13.508;2023-03-23T07:10:42;10.85;99.99
69823;SHT31;57119;52.516;13.508;2023-03-23T07:13:08;10.84;99.99
69823;SHT31;57119;52.516;13.508;2023-03-23T07:15:34;10.90;99.91
69823;SHT31;57119;52.516;13.508;2023-03-23T07:17:59;10.88;99.99
69823;SHT31;57119;52.516;13.508;2023-03-23T07:20:25;10.94;99.83
69823;SHT31;57119;52.516;13.508;2023-03-23T07:22:50;10.88;99.99
69823;SHT31;57119;52.516;13.508;2023-03-23T07:25:17;10.87;99.96
69823;SHT31;57119;52.516;13.508;2023-03-23T07:27:44;10.85;99.69
69823;SHT31;57119;52.516;13.508;2023-03-23T07:30:11;10.92;99.99
69823;SHT31;57119;52.516;13.508;2023-03-23T07:32:37;10.90;99.99
69823;SHT31;57119;52.516;13.508;2023-03-23T07:35:02;10.90;99.99
69823;SHT31;57119;52.516;13.508;2023-03-23T07:37:29;10.95;99.99
69823;SHT31;57119;52.516;13.508;2023-03-23T07:39:54;10.94;99.99
69823;SHT31;57119;52.516;13.508;2023-03-23T07:42:20;10.94;99.99
69823;SHT31;57119;52.516;13.508;2023-03-23T07:44:45;10.94;99.99
69823;SHT31;57119;52.516;13.508;2023-03-23T07:47:11;11.07;99.99
69823;SHT31;57119;52.516;13.508;2023-03-23T07:49:37;11.05;99.99
69823;SHT31;57119;52.516;13.508;2023-03-23T07:52:02;11.08;99.99
69823;SHT31;57119;52.516;13.508;2023-03-23T07:54:28;11.15;99.99
69823;SHT31;57119;52.516;13.508;2023-03-23T07:56:53;11.18;99.73
69823;SHT31;57119;52.516;13.508;2023-03-23T07:59:19;11.29;99.97
69823;SHT31;57119;52.516;13.508;2023-03-23T08:01:45;11.38;99.49
69823;SHT31;57119;52.516;13.508;2023-03-23T08:04:13;11.33;99.35
69823;SHT31;57119;52.516;13.508;2023-03-23T08:06:40;11.21;99.48
69823;SHT31;57119;52.516;13.508;2023-03-23T08:09:06;11.23;99.35
69823;SHT31;57119;52.516;13.508;2023-03-23T08:11:34;11.25;98.87
69823;SHT31;57119;52.516;13.508;2023-03-23T08:14:00;11.29;99.47
69823;SHT31;57119;52.516;13.508;2023-03-23T08:16:25;11.47;99.52
69823;SHT31;57119;52.516;13.508;2023-03-23T08:18:51;11.56;98.55
69823;SHT31;57119;52.516;13.508;2023-03-23T08:21:17;11.59;98.62
69823;SHT31;57119;52.516;13.508;2023-03-23T08:23:42;11.53;98.65
69823;SHT31;57119;52.516;13.508;2023-03-23T08:26:09;11.56;98.40
69823;SHT31;57119;52.516;13.508;2023-03-23T08:28:35;11.58;98.33
69823;SHT31;57119;52.516;13.508;2023-03-23T08:31:14;11.62;98.80
69823;SHT31;57119;52.516;13.508;2023-03-23T08:33:40;11.66;97.70
69823;SHT31;57119;52.516;13.508;2023-03-23T08:36:06;11.65;97.74
69823;SHT31;57119;52.516;13.508;2023-03-23T08:38:33;11.66;97.81
69823;SHT31;57119;52.516;13.508;2023-03-23T08:41:04;11.66;97.80
69823;SHT31;57119;52.516;13.508;2023-03-23T08:43:31;11.52;97.79
69823;SHT31;57119;52.516;13.508;2023-03-23T08:45:58;11.59;97.68
69823;SHT31;57119;52.516;13.508;2023-03-23T08:48:24;11.67;97.51
69823;SHT31;57119;52.516;13.508;2023-03-23T08:50:50;11.77;96.59
69823;SHT31;57119;52.516;13.508;2023-03-23T08:53:18;11.87;97.12
69823;SHT31;57119;52.516;13.508;2023-03-23T08:55:43;12.08;96.64
69823;SHT31;57119;52.516;13.508;2023-03-23T08:58:09;12.10;95.96
69823;SHT31;57119;52.516;13.508;2023-03-23T09:00:34;12.13;95.89
69823;SHT31;57119;52.516;13.508;2023-03-23T09:03:00;12.10;95.49
69823;SHT31;57119;52.516;13.508;2023-03-23T09:05:28;12.28;95.39
69823;SHT31;57119;52.516;13.508;2023-03-23T09:07:55;12.49;94.56
69823;SHT31;57119;52.516;13.508;2023-03-23T09:10:25;13.21;91.98
69823;SHT31;57119;52.516;13.508;2023-03-23T09:12:51;13.47;91.30
69823;SHT31;57119;52.516;13.508;2023-03-23T09:15:17;13.17;91.93
69823;SHT31;57119;52.516;13.508;2023-03-23T09:17:47;13.00;92.06
69823;SHT31;57119;52.516;13.508;2023-03-23T09:20:15;12.92;92.59
69823;SHT31;57119;52.516;13.508;2023-03-23T09:22:45;12.90;92.23
69823;SHT31;57119;52.516;13.508;2023-03-23T09:25:14;12.83;92.43
69823;SHT31;57119;52.516;13.508;2023-03-23T09:27:41;12.79;92.43
69823;SHT31;57119;52.516;13.508;2023-03-23T09:30:10;12.82;92.85
69823;SHT31;57119;52.516;13.508;2023-03-23T09:32:37;12.92;92.32
69823;SHT31;57119;52.516;13.508;2023-03-23T09:35:05;13.08;91.72
69823;SHT31;57119;52.516;13.508;2023-03-23T09:37:33;13.45;91.18
69823;SHT31;57119;52.516;13.508;2023-03-23T09:40:03;13.71;90.01
69823;SHT31;57119;52.516;13.508;2023-03-23T09:43:01;14.19;88.41
69823;SHT31;57119;52.516;13.508;2023-03-23T09:48:41;15.29;84.44
69823;SHT31;57119;52.516;13.508;2023-03-23T09:51:22;15.27;85.35
69823;SHT31;57119;52.516;13.508;2023-03-23T09:53:57;15.63;83.31
69823;SHT31;57119;52.516;13.508;2023-03-23T09:56:24;14.98;84.38
69823;SHT31;57119;52.516;13.508;2023-03-23T09:59:00;15.46;83.07
69823;SHT31;57119;52.516;13.508;2023-03-23T10:01:34;15.22;84.00
69823;SHT31;57119;52.516;13.508;2023-03-23T10:04:11;15.13;84.01
69823;SHT31;57119;52.516;13.508;2023-03-23T10:06:37;14.96;84.20
69823;SHT31;57119;52.516;13.508;2023-03-23T10:09:05;14.71;85.16
69823;SHT31;57119;52.516;13.508;2023-03-23T10:11:40;14.44;85.88
69823;SHT31;57119;52.516;13.508;2023-03-23T10:17:13;14.33;85.95
69823;SHT31;57119;52.516;13.508;2023-03-23T10:19:55;14.14;85.89
69823;SHT31;57119;52.516;13.508;2023-03-23T10:22:31;14.26;85.25
69823;SHT31;57119;52.516;13.508;2023-03-23T10:25:08;14.52;85.40
69823;SHT31;57119;52.516;13.508;2023-03-23T10:27:49;14.79;84.49
69823;SHT31;57119;52.516;13.508;2023-03-23T10:30:23;15.13;83.79
69823;SHT31;57119;52.516;13.508;2023-03-23T10:33:01;15.05;83.61
69823;SHT31;57119;52.516;13.508;2023-03-23T10:35:38;15.26;82.67
69823;SHT31;57119;52.516;13.508;2023-03-23T10:38:09;15.40;81.65
69823;SHT31;57119;52.516;13.508;2023-03-23T10:40:57;15.42;81.52
69823;SHT31;57119;52.516;13.508;2023-03-23T10:43:24;15.37;81.55
69823;SHT31;57119;52.516;13.508;2023-03-23T10:46:02;15.39;81.46
69823;SHT31;57119;52.516;13.508;2023-03-23T10:48:37;15.19;82.16
69823;SHT31;57119;52.516;13.508;2023-03-23T10:51:05;15.16;81.85
69823;SHT31;57119;52.516;13.508;2023-03-23T10:53:37;15.03;82.10
69823;SHT31;57119;52.516;13.508;2023-03-23T10:56:04;14.91;82.55
69823;SHT31;57119;52.516;13.508;2023-03-23T10:58:33;14.92;82.54
69823;SHT31;57119;52.516;13.508;2023-03-23T11:01:03;14.89;82.88
69823;SHT31;57119;52.516;13.508;2023-03-23T11:03:44;15.00;82.52
69823;SHT31;57119;52.516;13.508;2023-03-23T11:06:20;15.02;81.96
69823;SHT31;57119;52.516;13.508;2023-03-23T11:08:57;14.96;82.22
69823;SHT31;57119;52.516;13.508;2023-03-23T11:11:29;15.06;82.00
69823;SHT31;57119;52.516;13.508;2023-03-23T11:16:57;14.93;82.16
69823;SHT31;57119;52.516;13.508;2023-03-23T11:19:31;14.99;81.86
69823;SHT31;57119;52.516;13.508;2023-03-23T11:22:26;14.98;81.40
69823;SHT31;57119;52.516;13.508;2023-03-23T11:24:59;15.02;81.28
69823;SHT31;57119;52.516;13.508;2023-03-23T11:27:27;15.16;81.32
69823;SHT31;57119;52.516;13.508;2023-03-23T11:30:07;15.05;80.89
69823;SHT31;57119;52.516;13.508;2023-03-23T11:32:34;15.30;80.41
69823;SHT31;57119;52.516;13.508;2023-03-23T11:35:03;15.27;80.47
69823;SHT31;57119;52.516;13.508;2023-03-23T11:37:35;15.61;79.15
69823;SHT31;57119;52.516;13.508;2023-03-23T11:42:45;15.92;79.26
69823;SHT31;57119;52.516;13.508;2023-03-23T11:45:24;15.92;78.52
69823;SHT31;57119;52.516;13.508;2023-03-23T11:50:45;16.13;78.35
69823;SHT31;57119;52.516;13.508;2023-03-23T11:53:25;16.22;77.09
69823;SHT31;57119;52.516;13.508;2023-03-23T11:58:40;16.48;76.67
69823;SHT31;57119;52.516;13.508;2023-03-23T12:01:16;16.64;76.28
69823;SHT31;57119;52.516;13.508;2023-03-23T12:06:48;16.84;75.94
69823;SHT31;57119;52.516;13.508;2023-03-23T12:12:09;16.23;75.79
69823;SHT31;57119;52.516;13.508;2023-03-23T12:17:23;16.19;76.23
69823;SHT31;57119;52.516;13.508;2023-03-23T12:33:43;15.84;76.80
69823;SHT31;57119;52.516;13.508;2023-03-23T12:44:35;15.74;76.60
69823;SHT31;57119;52.516;13.508;2023-03-23T12:50:03;15.88;76.31
69823;SHT31;57119;52.516;13.508;2023-03-23T12:52:37;15.92;75.98
69823;SHT31;57119;52.516;13.508;2023-03-23T12:55:27;15.95;76.06
69823;SHT31;57119;52.516;13.508;2023-03-23T12:58:10;15.98;75.69
69823;SHT31;57119;52.516;13.508;2023-03-23T13:03:48;17.18;72.92
69823;SHT31;57119;52.516;13.508;2023-03-23T13:08:58;17.53;71.20
69823;SHT31;57119;52.516;13.508;2023-03-23T13:11:36;18.52;69.48
69823;SHT31;57119;52.516;13.508;2023-03-23T13:17:02;19.99;63.81
69823;SHT31;57119;52.516;13.508;2023-03-23T13:22:36;20.81;63.29
69823;SHT31;57119;52.516;13.508;2023-03-23T13:25:08;21.05;62.65
69823;SHT31;57119;52.516;13.508;2023-03-23T13:27:36;21.05;62.35
69823;SHT31;57119;52.516;13.508;2023-03-23T13:30:02;21.73;61.32
69823;SHT31;57119;52.516;13.508;2023-03-23T13:32:37;21.45;61.12
69823;SHT31;57119;52.516;13.508;2023-03-23T13:35:13;19.50;65.41
69823;SHT31;57119;52.516;13.508;2023-03-23T13:37:51;19.58;65.25
69823;SHT31;57119;52.516;13.508;2023-03-23T13:40:30;20.51;62.30
69823;SHT31;57119;52.516;13.508;2023-03-23T13:42:58;20.25;62.72
69823;SHT31;57119;52.516;13.508;2023-03-23T13:45:43;19.51;64.59
69823;SHT31;57119;52.516;13.508;2023-03-23T13:50:57;20.64;59.99
69823;SHT31;57119;52.516;13.508;2023-03-23T13:53:45;22.31;57.58
69823;SHT31;57119;52.516;13.508;2023-03-23T13:56:20;21.12;59.72
69823;SHT31;57119;52.516;13.508;2023-03-23T13:58:51;21.74;58.66
69823;SHT31;57119;52.516;13.508;2023-03-23T14:01:34;21.54;58.95
69823;SHT31;57119;52.516;13.508;2023-03-23T14:04:02;22.82;56.16
69823;SHT31;57119;52.516;13.508;2023-03-23T14:06:34;22.77;56.06
69823;SHT31;57119;52.516;13.508;2023-03-23T14:09:31;20.85;58.06
69823;SHT31;57119;52.516;13.508;2023-03-23T14:12:05;19.00;61.44
69823;SHT31;57119;52.516;13.508;2023-03-23T14:14:45;18.81;63.24
69823;SHT31;57119;52.516;13.508;2023-03-23T14:17:41;19.21;62.41
69823;SHT31;57119;52.516;13.508;2023-03-23T14:20:25;18.37;63.29
69823;SHT31;57119;52.516;13.508;2023-03-23T14:22:55;20.02;59.40
69823;SHT31;57119;52.516;13.508;2023-03-23T14:25:22;20.26;59.08
69823;SHT31;57119;52.516;13.508;2023-03-23T14:27:51;19.28;60.92
69823;SHT31;57119;52.516;13.508;2023-03-23T14:30:23;18.01;63.78
69823;SHT31;57119;52.516;13.508;2023-03-23T14:32:51;17.52;64.88
69823;SHT31;57119;52.516;13.508;2023-03-23T14:35:30;17.66;65.07
69823;SHT31;57119;52.516;13.508;2023-03-23T14:37:56;17.00;66.78
69823;SHT31;57119;52.516;13.508;2023-03-23T14:40:26;16.64;67.52
69823;SHT31;57119;52.516;13.508;2023-03-23T14:42:51;16.60;68.63
69823;SHT31;57119;52.516;13.508;2023-03-23T14:45:20;16.55;68.97
69823;SHT31;57119;52.516;13.508;2023-03-23T14:47:52;16.39;69.58
69823;SHT31;57119;52.516;13.508;2023-03-23T14:52:48;16.26;70.79
69823;SHT31;57119;52.516;13.508;2023-03-23T14:55:19;16.06;71.50
69823;SHT31;57119;52.516;13.508;2023-03-23T14:57:46;16.06;70.40
69823;SHT31;57119;52.516;13.508;2023-03-23T15:00:24;15.94;72.80
69823;SHT31;57119;52.516;13.508;2023-03-23T15:02:53;15.85;73.25
69823;SHT31;57119;52.516;13.508;2023-03-23T15:05:31;15.70;74.01
69823;SHT31;57119;52.516;13.508;2023-03-23T15:08:03;15.74;74.14
69823;SHT31;57119;52.516;13.508;2023-03-23T15:10:29;17.28;71.66
69823;SHT31;57119;52.516;13.508;2023-03-23T15:12:54;19.61;66.41
69823;SHT31;57119;52.516;13.508;2023-03-23T15:15:31;20.87;62.89
69823;SHT31;57119;52.516;13.508;2023-03-23T15:17:58;20.22;64.10
69823;SHT31;57119;52.516;13.508;2023-03-23T15:20:26;20.44;62.95
69823;SHT31;57119;52.516;13.508;2023-03-23T15:22:52;20.25;63.87
69823;SHT31;57119;52.516;13.508;2023-03-23T15:28:39;22.07;59.74
69823;SHT31;57119;52.516;13.508;2023-03-23T15:30:37;21.18;61.16
69823;SHT31;57119;52.516;13.508;2023-03-23T15:33:12;20.85;60.40
69823;SHT31;57119;52.516;13.508;2023-03-23T15:35:41;20.90;61.25
69823;SHT31;57119;52.516;13.508;2023-03-23T15:38:23;22.25;58.96
69823;SHT31;57119;52.516;13.508;2023-03-23T15:40:57;20.51;61.13
69823;SHT31;57119;52.516;13.508;2023-03-23T15:43:27;21.15;60.70
69823;SHT31;57119;52.516;13.508;2023-03-23T15:45:59;21.06;59.72
69823;SHT31;57119;52.516;13.508;2023-03-23T15:48:26;20.85;59.40
69823;SHT31;57119;52.516;13.508;2023-03-23T15:50:52;21.31;59.17
69823;SHT31;57119;52.516;13.508;2023-03-23T15:53:26;18.65;61.72
69823;SHT31;57119;52.516;13.508;2023-03-23T15:55:51;17.46;64.90
69823;SHT31;57119;52.516;13.508;2023-03-23T15:58:17;17.15;66.50
69823;SHT31;57119;52.516;13.508;2023-03-23T16:00:43;16.61;67.24
69823;SHT31;57119;52.516;13.508;2023-03-23T16:03:20;16.49;67.39
69823;SHT31;57119;52.516;13.508;2023-03-23T16:05:48;16.30;67.55
69823;SHT31;57119;52.516;13.508;2023-03-23T16:08:14;16.30;67.74
69823;SHT31;57119;52.516;13.508;2023-03-23T16:10:40;16.29;68.01
69823;SHT31;57119;52.516;13.508;2023-03-23T16:13:06;16.25;68.35
69823;SHT31;57119;52.516;13.508;2023-03-23T16:15:31;16.19;68.48
69823;SHT31;57119;52.516;13.508;2023-03-23T16:17:57;16.16;68.26
69823;SHT31;57119;52.516;13.508;2023-03-23T16:20:24;16.13;67.82
69823;SHT31;57119;52.516;13.508;2023-03-23T16:22:50;16.13;67.33
69823;SHT31;57119;52.516;13.508;2023-03-23T16:25:17;16.11;66.96
69823;SHT31;57119;52.516;13.508;2023-03-23T16:27:43;16.09;67.36
69823;SHT31;57119;52.516;13.508;2023-03-23T16:30:17;16.06;67.84
69823;SHT31;57119;52.516;13.508;2023-03-23T16:32:43;16.05;67.96
69823;SHT31;57119;52.516;13.508;2023-03-23T16:35:09;16.04;68.01
69823;SHT31;57119;52.516;13.508;2023-03-23T16:37:35;16.02;68.23
69823;SHT31;57119;52.516;13.508;2023-03-23T16:40:02;16.02;68.28
69823;SHT31;57119;52.516;13.508;2023-03-23T16:42:33;15.95;68.55
69823;SHT31;57119;52.516;13.508;2023-03-23T16:44:58;15.92;68.71
69823;SHT31;57119;52.516;13.508;2023-03-23T16:47:24;15.91;68.67
69823;SHT31;57119;52.516;13.508;2023-03-23T16:50:16;15.90;69.43
69823;SHT31;57119;52.516;13.508;2023-03-23T16:52:44;15.83;69.96
69823;SHT31;57119;52.516;13.508;2023-03-23T16:55:12;15.81;70.26
69823;SHT31;57119;52.516;13.508;2023-03-23T16:57:38;15.77;70.47
69823;SHT31;57119;52.516;13.508;2023-03-23T17:00:08;15.71;70.95
69823;SHT31;57119;52.516;13.508;2023-03-23T17:02:35;15.46;72.60